Weather Data

Pearl Creek Farm: 8878 N Farm Road 75, Walnut Grove MO 65770

<== Previous Day (Tuesday 05 Jun 2018) | Next Day (Thursday 07 Jun 2018) ==>

Summary Precipitation Data For Wednesday 06 June 2018

ElementValueUnits
Precipitation0"
Notes(none)
SourcePearl Creek Farm

Summary Temperature Data For Wednesday 06 June 2018

ElementValueUnits
High Temperature91 oF
Low Temperature66 oF
Average Temperature79 oF
High Humidity78 %
Low Humidity39 %
Average Humidity59 %
SourceSpringfield-Branson National Airport (SGF)

Detail Temperature Data For Wednesday 06 June 2018

Date / TimeTemp (F)RH (%)Dew Pt (F)Report Date / TimeSource
2018-06-06 00:52:00 71 68 60.0 2019-02-02 11:24:24.260017 Springfield-Branson National Airport (SGF)
2018-06-06 01:52:00 71 68 60.0 2019-02-02 11:24:24.260017 Springfield-Branson National Airport (SGF)
2018-06-06 02:52:00 69 73 60.0 2019-02-02 11:24:24.260017 Springfield-Branson National Airport (SGF)
2018-06-06 03:52:00 67 76 59.0 2019-02-02 11:24:24.260017 Springfield-Branson National Airport (SGF)
2018-06-06 04:52:00 66 78 59.0 2019-02-02 11:24:24.260017 Springfield-Branson National Airport (SGF)
2018-06-06 05:52:00 69 76 61.0 2019-02-02 11:24:24.260017 Springfield-Branson National Airport (SGF)
2018-06-06 06:52:00 72 71 62.0 2019-02-02 11:24:24.260017 Springfield-Branson National Airport (SGF)
2018-06-06 07:52:00 76 64 63.0 2019-02-02 11:24:24.260017 Springfield-Branson National Airport (SGF)
2018-06-06 08:52:00 83 57 66.0 2019-02-02 11:24:24.260017 Springfield-Branson National Airport (SGF)
2018-06-06 09:52:00 84 51 64.0 2019-02-02 11:24:24.260017 Springfield-Branson National Airport (SGF)
2018-06-06 10:52:00 87 46 64.0 2019-02-02 11:24:24.260017 Springfield-Branson National Airport (SGF)
2018-06-06 11:52:00 87 45 63.0 2019-02-02 11:24:24.260017 Springfield-Branson National Airport (SGF)
2018-06-06 12:52:00 89 42 63.0 2019-02-02 11:24:24.260017 Springfield-Branson National Airport (SGF)
2018-06-06 13:52:00 88 43 63.0 2019-02-02 11:24:24.260017 Springfield-Branson National Airport (SGF)
2018-06-06 14:52:00 91 39 63.0 2019-02-02 11:24:24.260017 Springfield-Branson National Airport (SGF)
2018-06-06 15:52:00 87 43 62.0 2019-02-02 11:24:24.260017 Springfield-Branson National Airport (SGF)
2018-06-06 16:52:00 89 42 63.0 2019-02-02 11:24:24.260017 Springfield-Branson National Airport (SGF)
2018-06-06 17:52:00 87 45 63.0 2019-02-02 11:24:24.260017 Springfield-Branson National Airport (SGF)
2018-06-06 18:52:00 83 53 64.0 2019-02-02 11:24:24.260017 Springfield-Branson National Airport (SGF)
2018-06-06 19:52:00 81 58 65.0 2019-02-02 11:24:24.260017 Springfield-Branson National Airport (SGF)
2018-06-06 20:52:00 78 64 65.0 2019-02-02 11:24:24.260017 Springfield-Branson National Airport (SGF)
2018-06-06 21:52:00 76 69 65.0 2019-02-02 11:24:24.260017 Springfield-Branson National Airport (SGF)
2018-06-06 22:52:00 75 69 64.0 2019-02-02 11:24:24.260017 Springfield-Branson National Airport (SGF)
2018-06-06 23:52:00 74 71 64.0 2019-02-02 11:24:24.260017 Springfield-Branson National Airport (SGF)

A total of 24 rows are displayed.